Time;durP1;ratioP1;P1;durP2;ratioP2;P2;SDS_P1;SDS_P2;PMS_P1;PMS_P2;Temp;Humidity;BMP_temperature;BMP_pressure;BME280_temperature;BME280_humidity;BME280_pressure;Samples;Min_cycle;Max_cycle;Signal;HPM_P1;HPM_P2
2021/06/06 00:02:23;;;;;;;;;;;;;;;19.54;72.27;101004.34;5046470;28;1545;-45
2021/06/06 00:04:49;;;;;;;;;;;;;;;19.54;72.47;100997.13;5047709;28;1712;-45
2021/06/06 00:07:16;;;;;;;;;;;;;;;19.56;72.23;100989.81;5053058;28;1902;-45
2021/06/06 00:09:44;;;;;;;;;;;;;;;19.55;72.28;100985.41;5046864;28;1428;-45
2021/06/06 00:12:10;;;;;;;;;;;;;;;19.53;72.07;100979.31;5036933;28;1781;-45
2021/06/06 00:14:42;;;;;;;;;;;;;;;19.51;71.90;100967.03;5046080;28;1467;-45
2021/06/06 00:17:09;;;;;;;;;;;;;;;19.52;72.32;100976.78;5047449;28;1629;-45
2021/06/06 00:19:39;;;;;;;;;;;;;;;19.52;71.78;100966.03;5051786;28;1558;-45
2021/06/06 00:22:06;;;;;;;;;;;;;;;19.51;71.66;100973.25;5053439;28;1054;-45
2021/06/06 00:24:34;;;;;;;;;;;;;;;19.49;72.63;100964.50;5042287;28;1688;-45
2021/06/06 00:27:01;;;;;;;;;;;;;;;19.51;71.82;100959.84;5041330;28;1795;-45
2021/06/06 00:29:27;;;;;;;;;;;;;;;19.50;71.98;100957.28;5045813;28;1961;-45
2021/06/06 00:31:53;;;;;;;;;;;;;;;19.49;71.83;100959.13;5044750;28;1641;-45
2021/06/06 00:34:20;;;;;;;;;;;;;;;19.48;71.96;100955.59;5045867;28;1892;-45
2021/06/06 00:36:46;;;;;;;;;;;;;;;19.47;71.68;100966.47;5039219;28;1568;-45
2021/06/06 00:39:12;;;;;;;;;;;;;;;19.47;71.75;100964.63;5037974;28;1748;-45
2021/06/06 00:41:40;;;;;;;;;;;;;;;19.48;71.82;100949.41;5050066;28;1613;-45
2021/06/06 00:44:06;;;;;;;;;;;;;;;19.45;72.14;100950.50;5042826;28;1446;-45
2021/06/06 00:46:32;;;;;;;;;;;;;;;19.45;72.00;100946.97;5045514;28;1553;-46
2021/06/06 00:49:00;;;;;;;;;;;;;;;19.45;72.16;100945.13;5050133;28;1902;-46
2021/06/06 00:51:28;;;;;;;;;;;;;;;19.46;72.30;100954.88;5047729;28;1059;-45
2021/06/06 00:53:59;;;;;;;;;;;;;;;19.44;72.09;100938.09;5043477;28;1749;-45
2021/06/06 00:56:26;;;;;;;;;;;;;;;19.41;71.89;100938.34;5043813;28;1602;-45
2021/06/06 00:58:56;;;;;;;;;;;;;;;19.44;72.61;100948.81;5043810;28;1601;-45
2021/06/06 01:01:22;;;;;;;;;;;;;;;19.45;72.07;100941.59;5041676;28;1713;-45
2021/06/06 01:03:49;;;;;;;;;;;;;;;19.44;72.23;100942.59;5042319;28;1857;-46
2021/06/06 01:06:16;;;;;;;;;;;;;;;19.45;72.08;100938.91;5051192;28;1597;-45
2021/06/06 01:08:43;;;;;;;;;;;;;;;19.45;71.77;100949.66;5049331;28;1971;-46
2021/06/06 01:11:12;;;;;;;;;;;;;;;19.46;71.51;100941.47;5047996;28;1947;-45
2021/06/06 01:13:40;;;;;;;;;;;;;;;19.41;72.49;100932.97;5042473;28;1603;-45
2021/06/06 01:16:09;;;;;;;;;;;;;;;19.42;72.41;100939.22;5051403;28;1739;-45
2021/06/06 01:18:36;;;;;;;;;;;;;;;19.44;72.30;100940.75;5048935;28;1773;-45
2021/06/06 01:21:08;;;;;;;;;;;;;;;19.42;72.19;100932.00;5045514;28;1504;-45
2021/06/06 01:23:41;;;;;;;;;;;;;;;19.45;71.96;100938.91;5051567;28;1455;-46
2021/06/06 01:26:11;;;;;;;;;;;;;;;19.44;72.01;100931.88;5052414;28;1640;-46
2021/06/06 01:28:40;;;;;;;;;;;;;;;19.44;71.74;100927.34;5047128;28;1914;-46
2021/06/06 01:31:06;;;;;;;;;;;;;;;19.42;71.82;100932.00;5043740;28;2219;-46
2021/06/06 01:33:35;;;;;;;;;;;;;;;19.43;72.00;100924.78;5045680;28;1610;-45
2021/06/06 01:36:04;;;;;;;;;;;;;;;19.42;71.74;100923.13;5052138;28;1557;-45
2021/06/06 01:38:33;;;;;;;;;;;;;;;19.40;72.40;100930.44;5047776;28;1637;-45
2021/06/06 01:41:00;;;;;;;;;;;;;;;19.37;71.94;100915.44;5052920;28;1735;-45
2021/06/06 01:43:30;;;;;;;;;;;;;;;19.39;71.96;100929.56;5048042;28;1732;-46
2021/06/06 01:45:58;;;;;;;;;;;;;;;19.43;72.24;100922.97;5048645;28;1355;-45
2021/06/06 01:48:25;;;;;;;;;;;;;;;19.37;72.41;100918.13;5044953;28;1976;-46
2021/06/06 01:50:56;;;;;;;;;;;;;;;19.38;72.16;100922.53;5043900;28;1632;-45
2021/06/06 01:53:23;;;;;;;;;;;;;;;19.37;71.89;100901.19;5047658;28;1815;-46
2021/06/06 01:55:51;;;;;;;;;;;;;;;19.36;72.39;100908.41;5050479;28;1659;-45
2021/06/06 01:58:19;;;;;;;;;;;;;;;19.36;72.24;100903.03;5053540;28;1668;-46
2021/06/06 02:00:48;;;;;;;;;;;;;;;19.38;72.06;100909.13;5060144;23;3622;-80
2021/06/06 02:03:15;;;;;;;;;;;;;;;19.39;71.40;100913.47;5025515;28;1815;-78
2021/06/06 02:05:41;;;;;;;;;;;;;;;19.37;72.25;100912.78;5021686;28;1741;-80
2021/06/06 02:08:09;;;;;;;;;;;;;;;19.38;72.11;100910.97;5031343;28;1950;-80
2021/06/06 02:10:37;;;;;;;;;;;;;;;19.34;72.24;100899.66;5029367;28;1408;-80
2021/06/06 02:13:05;;;;;;;;;;;;;;;19.34;71.83;100909.50;5030944;28;1572;-79
2021/06/06 02:15:33;;;;;;;;;;;;;;;19.34;72.17;100923.78;5029399;28;1657;-81
2021/06/06 02:18:01;;;;;;;;;;;;;;;19.34;72.35;100921.09;5026893;28;1320;-79
2021/06/06 02:20:29;;;;;;;;;;;;;;;19.35;72.22;100916.56;5032112;28;1352;-82
2021/06/06 02:22:56;;;;;;;;;;;;;;;19.31;72.43;100916.00;5032674;28;1655;-81
2021/06/06 02:25:22;;;;;;;;;;;;;;;19.30;72.05;100902.72;5026156;28;1309;-80
2021/06/06 02:27:52;;;;;;;;;;;;;;;19.31;72.24;100910.63;5034451;28;1902;-80
2021/06/06 02:30:21;;;;;;;;;;;;;;;19.30;71.64;100914.31;5029805;28;1329;-79
2021/06/06 02:32:54;;;;;;;;;;;;;;;19.30;71.63;100911.63;5031058;28;1861;-83
2021/06/06 02:35:24;;;;;;;;;;;;;;;19.37;71.77;100906.56;5029200;28;1358;-79
2021/06/06 02:37:55;;;;;;;;;;;;;;;19.35;71.77;100901.34;5025647;28;1603;-81
2021/06/06 02:40:25;;;;;;;;;;;;;;;19.35;71.87;100887.91;5029035;28;1296;-78
2021/06/06 02:42:54;;;;;;;;;;;;;;;19.37;72.09;100907.41;5033629;28;1523;-80
2021/06/06 02:45:23;;;;;;;;;;;;;;;19.33;71.48;100905.97;5049668;28;1446;-79
2021/06/06 02:47:51;;;;;;;;;;;;;;;19.38;72.06;100898.41;5051845;28;1979;-78
2021/06/06 02:50:20;;;;;;;;;;;;;;;19.35;72.20;100887.91;5050616;28;1455;-79
2021/06/06 02:52:50;;;;;;;;;;;;;;;19.32;72.09;100885.53;5053341;28;1389;-82
2021/06/06 02:55:18;;;;;;;;;;;;;;;19.33;71.93;100881.00;5054160;28;1539;-79
2021/06/06 02:57:48;;;;;;;;;;;;;;;19.32;71.94;100882.84;5051109;28;1713;-78
2021/06/06 03:00:18;;;;;;;;;;;;;;;19.34;71.74;100886.25;5042463;28;1415;-79
2021/06/06 03:02:46;;;;;;;;;;;;;;;19.31;72.32;100875.78;5047086;28;1517;-79
2021/06/06 03:05:14;;;;;;;;;;;;;;;19.33;71.39;100894.41;5044454;28;1356;-78
2021/06/06 03:07:42;;;;;;;;;;;;;;;19.32;71.97;100890.03;5045493;28;1984;-80
2021/06/06 03:10:13;;;;;;;;;;;;;;;19.32;72.34;100893.56;5043435;28;1395;-81
2021/06/06 03:12:39;;;;;;;;;;;;;;;19.31;72.34;100897.22;5047073;28;1498;-82
2021/06/06 03:15:09;;;;;;;;;;;;;;;19.32;72.17;100892.69;5043874;28;1805;-79
2021/06/06 03:17:37;;;;;;;;;;;;;;;19.26;71.86;100884.22;5045349;28;1443;-81
2021/06/06 03:20:08;;;;;;;;;;;;;;;19.30;72.27;100900.91;5043149;28;1759;-82
2021/06/06 03:22:35;;;;;;;;;;;;;;;19.28;71.67;100881.41;5046300;28;1473;-78
2021/06/06 03:25:04;;;;;;;;;;;;;;;19.28;72.21;100892.16;5047014;28;1451;-81
2021/06/06 03:27:36;;;;;;;;;;;;;;;19.28;71.86;100887.63;5044660;28;1267;-82
2021/06/06 03:30:12;;;;;;;;;;;;;;;19.31;71.41;100867.72;5045307;28;1768;-82
2021/06/06 03:32:41;;;;;;;;;;;;;;;19.33;71.60;100883.69;5052058;28;1573;-84
2021/06/06 03:35:09;;;;;;;;;;;;;;;19.33;71.89;100884.53;5041171;28;1636;-81
2021/06/06 03:37:38;;;;;;;;;;;;;;;19.35;72.19;100889.75;5052182;28;1716;-79
2021/06/06 03:40:05;;;;;;;;;;;;;;;19.34;71.83;100894.28;5052314;28;1558;-79
2021/06/06 03:42:31;;;;;;;;;;;;;;;19.33;71.75;100897.94;5049651;28;1606;-79
2021/06/06 03:44:58;;;;;;;;;;;;;;;19.36;71.57;100889.63;5033137;23;3620;-44
2021/06/06 03:47:25;;;;;;;;;;;;;;;19.36;72.29;100875.34;4996013;28;2078;-47
2021/06/06 03:49:51;;;;;;;;;;;;;;;19.32;71.94;100890.03;5001535;28;1922;-45
2021/06/06 03:52:17;;;;;;;;;;;;;;;19.34;72.79;100893.41;5001104;28;1064;-44
2021/06/06 03:54:43;;;;;;;;;;;;;;;19.35;73.14;100893.28;5005628;28;1367;-44
2021/06/06 03:57:09;;;;;;;;;;;;;;;19.35;73.05;100874.50;5003635;28;1597;-44
2021/06/06 03:59:35;;;;;;;;;;;;;;;19.39;72.21;100889.34;5002633;28;1538;-45
2021/06/06 04:02:02;;;;;;;;;;;;;;;19.42;72.53;100877.53;5012502;28;1562;-44
2021/06/06 04:04:28;;;;;;;;;;;;;;;19.42;72.23;100889.09;5026086;28;1775;-44
2021/06/06 04:06:55;;;;;;;;;;;;;;;19.41;72.49;100884.69;5022608;28;1643;-45
2021/06/06 04:09:21;;;;;;;;;;;;;;;19.43;72.01;100884.56;5026612;28;1910;-44
2021/06/06 04:11:47;;;;;;;;;;;;;;;19.39;72.26;100886.66;5019707;28;1399;-45
2021/06/06 04:14:13;;;;;;;;;;;;;;;19.43;72.46;100887.25;5020195;28;1494;-44
2021/06/06 04:16:39;;;;;;;;;;;;;;;19.43;72.08;100885.41;5022131;28;1525;-44
2021/06/06 04:19:06;;;;;;;;;;;;;;;19.48;71.80;100891.22;5024251;28;1451;-45
2021/06/06 04:21:34;;;;;;;;;;;;;;;19.50;71.53;100882.19;5025302;28;1697;-44
2021/06/06 04:24:00;;;;;;;;;;;;;;;19.55;71.98;100874.59;5028396;28;1648;-44
2021/06/06 04:26:26;;;;;;;;;;;;;;;19.60;71.23;100883.09;5021822;28;1384;-44
2021/06/06 04:28:52;;;;;;;;;;;;;;;19.65;71.27;100876.31;5020382;28;1910;-46
2021/06/06 04:31:19;;;;;;;;;;;;;;;19.74;71.57;100887.25;5021759;28;1360;-44
2021/06/06 04:33:45;;;;;;;;;;;;;;;19.79;71.25;100890.34;5022830;28;1380;-44
2021/06/06 04:36:13;;;;;;;;;;;;;;;19.77;70.82;100885.13;5030311;28;1445;-44
2021/06/06 04:38:40;;;;;;;;;;;;;;;19.80;71.85;100878.66;5024255;28;1882;-44
2021/06/06 04:41:07;;;;;;;;;;;;;;;19.82;70.88;100882.88;5027780;28;1784;-45
2021/06/06 04:43:33;;;;;;;;;;;;;;;19.86;71.66;100883.47;5024008;28;1496;-46
2021/06/06 04:45:59;;;;;;;;;;;;;;;19.85;71.49;100897.84;5022743;28;1235;-45
2021/06/06 04:48:27;;;;;;;;;;;;;;;19.83;71.99;100889.94;5024501;28;2043;-44
2021/06/06 04:50:53;;;;;;;;;;;;;;;19.90;71.76;100892.09;5023495;28;1709;-44
2021/06/06 04:53:21;;;;;;;;;;;;;;;19.85;71.99;100884.44;5027189;28;1745;-44
2021/06/06 04:55:47;;;;;;;;;;;;;;;19.77;72.04;100884.28;5022083;28;1644;-44
2021/06/06 04:58:14;;;;;;;;;;;;;;;19.74;72.03;100869.31;5030276;28;1489;-46
2021/06/06 05:00:41;;;;;;;;;;;;;;;19.80;72.24;100881.34;5018553;28;2004;-45
2021/06/06 05:03:08;;;;;;;;;;;;;;;19.78;71.29;100876.09;5021095;28;1921;-45
2021/06/06 05:05:34;;;;;;;;;;;;;;;19.81;71.26;100874.97;5029365;28;1587;-44
2021/06/06 05:08:00;;;;;;;;;;;;;;;19.82;71.75;100872.16;5016225;28;1976;-44
2021/06/06 05:10:28;;;;;;;;;;;;;;;19.82;71.92;100872.16;5019658;28;1571;-44
2021/06/06 05:12:54;;;;;;;;;;;;;;;19.84;71.03;100869.34;5024307;28;1345;-45
2021/06/06 05:15:21;;;;;;;;;;;;;;;19.82;71.10;100866.78;5026643;28;1483;-44
2021/06/06 05:17:47;;;;;;;;;;;;;;;19.83;71.69;100848.84;5024111;28;1630;-44
2021/06/06 05:20:15;;;;;;;;;;;;;;;19.82;71.90;100856.06;5023140;28;1749;-45
2021/06/06 05:22:41;;;;;;;;;;;;;;;19.82;71.03;100860.56;5020433;28;1658;-44
2021/06/06 05:25:07;;;;;;;;;;;;;;;19.84;72.00;100869.34;5024130;28;1552;-45
2021/06/06 05:27:35;;;;;;;;;;;;;;;19.82;71.11;100872.16;5027442;28;1722;-45
2021/06/06 05:30:01;;;;;;;;;;;;;;;19.83;71.10;100871.16;5030669;28;1977;-45
2021/06/06 05:32:27;;;;;;;;;;;;;;;19.84;71.81;100869.34;5020789;28;1629;-46
2021/06/06 05:34:53;;;;;;;;;;;;;;;19.84;71.02;100864.81;5026641;28;1933;-45
2021/06/06 05:37:19;;;;;;;;;;;;;;;19.86;70.93;100862.00;5032712;28;1497;-45
2021/06/06 05:39:45;;;;;;;;;;;;;;;19.86;71.76;100884.31;5026457;28;1572;-45
2021/06/06 05:42:12;;;;;;;;;;;;;;;19.84;72.03;100875.53;5025300;28;1583;-44
2021/06/06 05:44:39;;;;;;;;;;;;;;;19.83;68.42;100883.72;5026535;28;1850;-44
2021/06/06 05:47:06;;;;;;;;;;;;;;;19.83;68.47;100881.03;5019373;28;1697;-46
2021/06/06 05:49:32;;;;;;;;;;;;;;;19.81;70.04;100875.81;5032843;28;1902;-44
2021/06/06 05:51:59;;;;;;;;;;;;;;;19.76;68.71;100879.91;5023048;28;1814;-44
2021/06/06 05:54:25;;;;;;;;;;;;;;;19.77;70.31;100863.66;5026996;28;1646;-44
2021/06/06 05:56:50;;;;;;;;;;;;;;;19.84;70.36;100872.84;5029356;28;1780;-44
2021/06/06 05:59:16;;;;;;;;;;;;;;;19.86;70.89;100888.84;4972811;28;1594;-45
2021/06/06 06:01:44;;;;;;;;;;;;;;;19.85;70.97;100884.44;5023273;28;1555;-44
2021/06/06 06:04:10;;;;;;;;;;;;;;;19.84;70.28;100883.59;5022391;28;1658;-45
2021/06/06 06:06:36;;;;;;;;;;;;;;;19.82;70.65;100877.53;5021961;28;1483;-45
2021/06/06 06:09:03;;;;;;;;;;;;;;;19.84;70.65;100869.34;5023635;28;1910;-45
2021/06/06 06:11:30;;;;;;;;;;;;;;;19.85;70.90;100879.91;5019756;28;1512;-45
2021/06/06 06:13:56;;;;;;;;;;;;;;;19.86;71.81;100865.53;5021996;28;1587;-45
2021/06/06 06:16:26;;;;;;;;;;;;;;;19.89;71.57;100882.31;5014933;28;1428;-44
2021/06/06 06:18:53;;;;;;;;;;;;;;;19.86;71.16;100862.84;5023544;28;1575;-45
2021/06/06 06:21:20;;;;;;;;;;;;;;;19.86;72.23;100884.31;5025449;28;1406;-44
2021/06/06 06:23:46;;;;;;;;;;;;;;;19.85;71.68;100885.28;5027426;28;1559;-45
2021/06/06 06:26:12;;;;;;;;;;;;;;;19.86;72.17;100878.09;5024957;28;1439;-45
2021/06/06 06:28:38;;;;;;;;;;;;;;;19.88;71.99;100880.66;5019615;28;1972;-45
2021/06/06 06:31:04;;;;;;;;;;;;;;;19.88;72.00;100877.97;5023461;28;1619;-45
2021/06/06 06:33:30;;;;;;;;;;;;;;;19.89;71.88;100871.59;5022566;28;11147;-46
2021/06/06 06:35:58;;;;;;;;;;;;;;;19.92;71.85;100892.81;5027234;28;12733;-45
2021/06/06 06:38:26;;;;;;;;;;;;;;;19.91;71.91;100869.63;5019828;28;1547;-46
2021/06/06 06:40:52;;;;;;;;;;;;;;;19.90;71.68;100873.31;5028100;28;1476;-46
2021/06/06 06:43:18;;;;;;;;;;;;;;;19.92;71.71;100871.34;5020198;28;2566;-45
2021/06/06 06:48:33;;;;;;;;;;;;;;;19.98;72.58;100870.78;5039758;28;2326;-45
2021/06/06 06:51:16;;;;;;;;;;;;;;;19.97;71.87;100859.16;5045571;28;1628;-45
2021/06/06 06:53:43;;;;;;;;;;;;;;;19.99;71.84;100861.72;5047326;28;1651;-45
2021/06/06 06:56:09;;;;;;;;;;;;;;;20.03;72.20;100865.81;5039538;28;1400;-45
2021/06/06 06:58:38;;;;;;;;;;;;;;;20.05;72.13;100882.63;5045725;28;1581;-44
2021/06/06 07:01:08;;;;;;;;;;;;;;;20.03;71.65;100868.50;5046826;28;1508;-45
2021/06/06 07:03:37;;;;;;;;;;;;;;;20.04;72.96;100878.25;5046239;28;1632;-45
2021/06/06 07:06:23;;;;;;;;;;;;;;;20.03;72.13;100876.56;5044633;28;1598;-44
2021/06/06 07:08:51;;;;;;;;;;;;;;;20.04;71.76;100875.59;5046551;28;1965;-45
2021/06/06 07:11:21;;;;;;;;;;;;;;;20.04;72.52;100881.78;5046371;28;1605;-44
2021/06/06 07:13:49;;;;;;;;;;;;;;;20.12;73.09;100867.66;5042610;28;1660;-45
2021/06/06 07:16:16;;;;;;;;;;;;;;;20.18;72.74;100891.28;5043661;28;1643;-45
2021/06/06 07:18:42;;;;;;;;;;;;;;;20.23;73.59;100880.09;5040236;28;1668;-44
2021/06/06 07:21:11;;;;;;;;;;;;;;;20.22;73.17;100884.63;5043802;28;1801;-45
2021/06/06 07:23:37;;;;;;;;;;;;;;;20.20;73.49;100896.50;5041407;28;1583;-45
2021/06/06 07:26:10;;;;;;;;;;;;;;;20.19;73.21;100889.44;5036193;28;1550;-45
2021/06/06 07:28:37;;;;;;;;;;;;;;;20.16;73.26;100885.19;5034756;28;1910;-44
2021/06/06 07:31:05;;;;;;;;;;;;;;;20.20;73.01;100889.28;5042206;28;1725;-44
2021/06/06 07:33:33;;;;;;;;;;;;;;;20.19;72.63;100895.66;5044664;28;1493;-45
2021/06/06 07:36:00;;;;;;;;;;;;;;;20.15;72.52;100886.16;5039401;28;1769;-46
2021/06/06 07:38:26;;;;;;;;;;;;;;;20.19;73.06;100906.41;5042888;28;1484;-44
2021/06/06 07:40:59;;;;;;;;;;;;;;;20.17;72.51;100904.81;5038905;28;1754;-44
2021/06/06 07:43:27;;;;;;;;;;;;;;;20.18;73.51;100896.63;5047508;28;1640;-45
2021/06/06 07:45:58;;;;;;;;;;;;;;;20.23;73.67;100902.44;5044829;28;1562;-46
2021/06/06 07:48:24;;;;;;;;;;;;;;;20.24;73.76;100874.59;5039623;28;1979;-46
2021/06/06 07:50:51;;;;;;;;;;;;;;;20.29;75.20;100889.44;5038135;28;1581;-45
2021/06/06 07:53:18;;;;;;;;;;;;;;;20.30;74.30;100891.16;5045595;28;1584;-45
2021/06/06 07:55:44;;;;;;;;;;;;;;;20.29;74.11;100911.75;5037971;28;1510;-45
2021/06/06 07:58:11;;;;;;;;;;;;;;;20.23;73.46;100907.81;5048859;28;1392;-45
2021/06/06 08:00:42;;;;;;;;;;;;;;;20.23;74.32;100909.63;5043473;28;1806;-44
2021/06/06 08:03:09;;;;;;;;;;;;;;;20.21;73.88;100904.44;5042219;28;2040;-44
2021/06/06 08:05:36;;;;;;;;;;;;;;;20.23;74.03;100913.19;5037362;28;1765;-45
2021/06/06 08:08:03;;;;;;;;;;;;;;;20.22;74.17;100911.47;5043682;28;2346;-44
2021/06/06 08:10:30;;;;;;;;;;;;;;;20.25;74.22;100910.34;5044897;28;1976;-48
2021/06/06 08:12:58;;;;;;;;;;;;;;;20.25;73.53;100913.91;5037320;28;1776;-44
2021/06/06 08:15:24;;;;;;;;;;;;;;;20.25;73.73;100910.34;5037312;28;1620;-44
2021/06/06 08:17:52;;;;;;;;;;;;;;;20.25;73.64;100929.13;5044897;28;1610;-44
2021/06/06 08:20:21;;;;;;;;;;;;;;;20.24;74.02;100932.84;5041052;28;1610;-45
2021/06/06 08:22:50;;;;;;;;;;;;;;;20.30;73.61;100918.00;5040969;28;1509;-45
2021/06/06 08:25:21;;;;;;;;;;;;;;;20.27;74.58;100925.34;5035356;28;1613;-44
2021/06/06 08:27:50;;;;;;;;;;;;;;;20.28;74.20;100926.19;5047738;28;1542;-44
2021/06/06 08:30:21;;;;;;;;;;;;;;;20.32;74.37;100916.03;5047850;28;1906;-45
2021/06/06 08:32:54;;;;;;;;;;;;;;;20.35;74.71;100918.41;5042447;28;2129;-45
2021/06/06 08:35:26;;;;;;;;;;;;;;;20.34;73.41;100914.03;5042831;28;1527;-45
2021/06/06 08:37:54;;;;;;;;;;;;;;;20.36;73.50;100917.44;5041702;28;2111;-47
2021/06/06 08:40:25;;;;;;;;;;;;;;;20.32;73.31;100911.50;5046600;28;1599;-44
2021/06/06 08:42:56;;;;;;;;;;;;;;;20.31;74.11;100908.94;5047045;28;1586;-45
2021/06/06 08:45:28;;;;;;;;;;;;;;;20.29;73.97;100917.13;5042763;28;1709;-44
2021/06/06 08:48:00;;;;;;;;;;;;;;;20.29;73.64;100910.91;5043092;28;1570;-44
2021/06/06 08:50:41;;;;;;;;;;;;;;;20.32;73.46;100926.75;5042093;28;2044;-45
2021/06/06 08:53:18;;;;;;;;;;;;;;;20.30;73.84;100918.84;5045247;28;1600;-44
2021/06/06 08:55:57;;;;;;;;;;;;;;;20.32;73.16;100921.41;5042285;28;1539;-44
2021/06/06 08:58:29;;;;;;;;;;;;;;;20.25;73.82;100916.59;5043792;28;1701;-45
2021/06/06 09:01:01;;;;;;;;;;;;;;;20.27;73.94;100909.25;5049472;28;1526;-45
2021/06/06 09:03:28;;;;;;;;;;;;;;;20.25;74.10;100919.28;5047325;28;1568;-45
2021/06/06 09:06:00;;;;;;;;;;;;;;;20.26;73.61;100902.16;5040889;28;1912;-45
2021/06/06 09:08:27;;;;;;;;;;;;;;;20.28;73.79;100904.69;5048168;28;1905;-45
2021/06/06 09:11:08;;;;;;;;;;;;;;;20.29;73.78;100901.00;5049293;28;1472;-47
2021/06/06 09:13:35;;;;;;;;;;;;;;;20.29;74.28;100900.19;5045379;28;1667;-45
2021/06/06 09:16:16;;;;;;;;;;;;;;;20.32;74.02;100902.59;5047829;28;1495;-46
2021/06/06 09:18:47;;;;;;;;;;;;;;;20.26;74.41;100894.09;5042938;28;1762;-45
2021/06/06 09:21:22;;;;;;;;;;;;;;;20.27;74.22;100894.94;5041140;28;1646;-45
2021/06/06 09:23:52;;;;;;;;;;;;;;;20.26;74.37;100907.53;5046051;28;1595;-45
2021/06/06 09:26:24;;;;;;;;;;;;;;;20.23;74.08;100906.94;5048236;28;1731;-44
2021/06/06 09:29:02;;;;;;;;;;;;;;;20.22;73.70;100895.38;5046424;28;1979;-45
2021/06/06 09:31:29;;;;;;;;;;;;;;;20.22;73.54;100907.94;5047699;28;1709;-46
2021/06/06 09:33:59;;;;;;;;;;;;;;;20.23;73.46;100905.13;5046488;28;1659;-45
2021/06/06 09:36:29;;;;;;;;;;;;;;;20.24;73.49;100893.38;5045581;28;1695;-45
2021/06/06 09:38:56;;;;;;;;;;;;;;;20.28;73.45;100904.69;5043274;28;1535;-44
2021/06/06 09:41:32;;;;;;;;;;;;;;;20.31;73.93;100901.72;5048091;28;1722;-46
2021/06/06 09:44:04;;;;;;;;;;;;;;;20.32;72.72;100892.69;5052122;28;1684;-45
2021/06/06 09:46:38;;;;;;;;;;;;;;;20.31;73.23;100882.91;5045376;28;1899;-45
2021/06/06 09:49:09;;;;;;;;;;;;;;;20.34;72.47;100897.94;5048766;28;1906;-45
2021/06/06 09:51:38;;;;;;;;;;;;;;;20.34;72.25;100885.34;5043217;28;1504;-45
2021/06/06 09:54:12;;;;;;;;;;;;;;;20.33;72.08;100891.69;5040339;28;1696;-46
2021/06/06 09:56:39;;;;;;;;;;;;;;;20.36;73.09;100888.72;5047256;28;1640;-46
2021/06/06 09:59:12;;;;;;;;;;;;;;;20.45;73.06;100885.22;5046502;28;1684;-45
2021/06/06 10:01:46;;;;;;;;;;;;;;;20.44;73.17;100883.50;5046810;28;1605;-46
2021/06/06 10:04:18;;;;;;;;;;;;;;;20.43;72.98;100883.63;5046962;28;1549;-47
2021/06/06 10:06:46;;;;;;;;;;;;;;;20.41;72.90;100872.19;5038263;28;1572;-46
2021/06/06 10:09:17;;;;;;;;;;;;;;;20.41;72.73;100882.94;5043927;28;1993;-46
2021/06/06 10:11:54;;;;;;;;;;;;;;;20.42;73.77;100871.22;5053448;28;1479;-46
2021/06/06 10:14:24;;;;;;;;;;;;;;;20.39;74.67;100869.66;5040461;28;1846;-46
2021/06/06 10:16:55;;;;;;;;;;;;;;;20.37;75.05;100860.03;5046272;28;1396;-45
2021/06/06 10:19:26;;;;;;;;;;;;;;;20.35;73.93;100868.25;5044038;28;1243;-45
2021/06/06 10:21:58;;;;;;;;;;;;;;;20.34;74.71;100865.69;5040426;28;1491;-48
2021/06/06 10:24:31;;;;;;;;;;;;;;;20.33;73.49;100864.00;5045395;28;1732;-46
2021/06/06 10:27:02;;;;;;;;;;;;;;;20.33;73.78;100850.56;5039614;28;1686;-45
2021/06/06 10:29:31;;;;;;;;;;;;;;;20.37;72.89;100870.78;5049395;28;1910;-46
2021/06/06 10:32:01;;;;;;;;;;;;;;;20.35;73.29;100853.94;5047577;28;1605;-46
2021/06/06 10:34:34;;;;;;;;;;;;;;;20.33;72.80;100864.00;5043851;28;1441;-46
2021/06/06 10:37:02;;;;;;;;;;;;;;;20.32;73.93;100846.19;5042039;28;1657;-45
2021/06/06 10:39:29;;;;;;;;;;;;;;;20.35;73.22;100851.25;5045708;28;1756;-46
2021/06/06 10:42:01;;;;;;;;;;;;;;;20.35;73.61;100856.63;5046318;28;1448;-48
2021/06/06 10:44:32;;;;;;;;;;;;;;;20.36;73.14;100866.41;5039302;28;1625;-46
2021/06/06 10:47:01;;;;;;;;;;;;;;;20.32;72.66;100859.63;5042165;28;1566;-46
2021/06/06 10:49:29;;;;;;;;;;;;;;;20.33;73.10;100853.25;5044611;28;1906;-46
2021/06/06 10:51:57;;;;;;;;;;;;;;;20.33;72.49;100843.34;5048848;28;1791;-46
2021/06/06 10:54:43;;;;;;;;;;;;;;;20.31;72.68;100828.38;5043198;28;1934;-46
2021/06/06 10:57:30;;;;;;;;;;;;;;;20.30;73.48;100838.28;5044415;28;1678;-46
2021/06/06 11:00:10;;;;;;;;;;;;;;;20.30;73.36;100837.44;5041243;28;1547;-47
2021/06/06 11:02:37;;;;;;;;;;;;;;;20.28;73.27;100832.19;5039487;28;1638;-46
2021/06/06 11:05:05;;;;;;;;;;;;;;;20.25;73.25;100830.66;5045910;28;1495;-46
2021/06/06 11:07:37;;;;;;;;;;;;;;;20.29;72.90;100835.72;5045373;28;1523;-46
2021/06/06 11:10:06;;;;;;;;;;;;;;;20.25;73.58;100845.91;5047380;28;1910;-46
2021/06/06 11:12:35;;;;;;;;;;;;;;;20.25;72.48;100836.03;5044468;28;1479;-47
2021/06/06 11:15:02;;;;;;;;;;;;;;;20.25;72.63;100851.25;5043475;28;1582;-45
2021/06/06 11:17:35;;;;;;;;;;;;;;;20.25;72.48;100843.22;5042138;28;1526;-46
2021/06/06 11:20:29;;;;;;;;;;;;;;;20.26;73.22;100834.19;5043397;28;1570;-46
2021/06/06 11:22:58;;;;;;;;;;;;;;;20.26;73.43;100842.25;5039415;28;2165;-45
2021/06/06 11:25:35;;;;;;;;;;;;;;;20.25;73.42;100836.03;5043272;28;1439;-46
2021/06/06 11:28:08;;;;;;;;;;;;;;;20.25;73.48;100827.97;5043147;28;1546;-46
2021/06/06 11:30:40;;;;;;;;;;;;;;;20.26;72.40;100832.34;5042424;28;12605;-45
2021/06/06 11:33:10;;;;;;;;;;;;;;;20.27;72.49;100831.34;5045495;28;1622;-45
2021/06/06 11:35:51;;;;;;;;;;;;;;;20.28;72.44;100842.94;5042258;28;1577;-45
2021/06/06 11:38:29;;;;;;;;;;;;;;;20.25;72.54;100838.72;5021613;28;2066;-46
2021/06/06 11:41:05;;;;;;;;;;;;;;;20.24;72.57;100828.94;5043941;28;1889;-46
2021/06/06 11:43:34;;;;;;;;;;;;;;;20.30;72.54;100832.91;5040719;28;1961;-47
2021/06/06 11:46:12;;;;;;;;;;;;;;;20.29;73.10;100824.97;5043747;28;1492;-46
2021/06/06 11:48:45;;;;;;;;;;;;;;;20.32;71.56;100841.66;5039569;28;1937;-47
2021/06/06 11:51:16;;;;;;;;;;;;;;;20.30;72.48;100821.31;5042590;28;1959;-46
2021/06/06 11:53:44;;;;;;;;;;;;;;;20.29;71.40;100830.34;5043703;28;1545;-46
2021/06/06 11:56:13;;;;;;;;;;;;;;;20.34;71.98;100817.34;5039688;28;1486;-47
2021/06/06 11:58:42;;;;;;;;;;;;;;;20.34;71.18;100801.25;5041154;28;1597;-46
2021/06/06 12:01:12;;;;;;;;;;;;;;;20.43;71.40;100803.06;5045314;28;1557;-48
2021/06/06 12:03:39;;;;;;;;;;;;;;;20.46;71.52;100805.47;5038538;28;1525;-47
2021/06/06 12:06:08;;;;;;;;;;;;;;;20.49;71.00;100805.16;5042713;28;1477;-46
2021/06/06 12:08:50;;;;;;;;;;;;;;;20.52;70.00;100817.47;5045411;28;1822;-46
2021/06/06 12:11:27;;;;;;;;;;;;;;;20.51;69.57;100807.69;5041215;28;1876;-47
2021/06/06 12:14:14;;;;;;;;;;;;;;;20.52;70.89;100806.72;5040079;28;1509;-46
2021/06/06 12:16:45;;;;;;;;;;;;;;;20.53;70.45;100795.84;5044351;28;1818;-46
2021/06/06 12:19:13;;;;;;;;;;;;;;;20.52;70.92;100790.59;5041243;28;1607;-46
2021/06/06 12:21:41;;;;;;;;;;;;;;;20.52;70.67;100804.03;5047885;28;1539;-47
2021/06/06 12:24:11;;;;;;;;;;;;;;;20.50;69.79;100804.19;5043494;28;1949;-46
2021/06/06 12:26:40;;;;;;;;;;;;;;;20.49;70.20;100807.00;5043402;28;1536;-46
2021/06/06 12:29:07;;;;;;;;;;;;;;;20.47;70.96;100793.72;5047722;28;1887;-47
2021/06/06 12:31:34;;;;;;;;;;;;;;;20.45;71.16;100791.19;5033222;28;1640;-46
2021/06/06 12:34:10;;;;;;;;;;;;;;;20.40;70.23;100789.91;5035860;28;1563;-46
2021/06/06 12:36:39;;;;;;;;;;;;;;;20.35;71.53;100786.81;5044219;28;1548;-47
2021/06/06 12:39:08;;;;;;;;;;;;;;;20.33;70.90;100791.47;5041602;28;1735;-46
2021/06/06 12:41:37;;;;;;;;;;;;;;;20.33;70.85;100786.09;5037121;28;1525;-47
2021/06/06 12:44:04;;;;;;;;;;;;;;;20.42;71.23;100782.56;5049443;28;1409;-46
2021/06/06 12:46:31;;;;;;;;;;;;;;;20.48;70.79;100787.34;5049087;28;1660;-47
2021/06/06 12:48:59;;;;;;;;;;;;;;;20.48;70.43;100783.84;5044026;28;2033;-46
2021/06/06 12:51:28;;;;;;;;;;;;;;;20.42;71.49;100771.81;5041876;28;1533;-47
2021/06/06 12:54:04;;;;;;;;;;;;;;;20.39;71.86;100767.59;5047408;28;1660;-46
2021/06/06 12:56:31;;;;;;;;;;;;;;;20.36;71.63;100764.34;5042243;28;11416;-47
2021/06/06 12:59:03;;;;;;;;;;;;;;;20.39;70.84;100772.97;5048678;28;1499;-46